Time;durP1;ratioP1;P1;durP2;ratioP2;P2;SDS_P1;SDS_P2;PMS_P1;PMS_P2;Temp;Humidity;BMP_temperature;BMP_pressure;BME280_temperature;BME280_humidity;BME280_pressure;Samples;Min_cycle;Max_cycle;Signal;HPM_P1;HPM_P2
2023/02/14 00:00:05;;;;;;;838.07;769.47;;;2.50;99.90;;;;;;5038865;28;20476;-83
2023/02/14 00:02:31;;;;;;;838.33;770.60;;;2.50;99.90;;;;;;5040508;28;20518;-83
2023/02/14 00:05:00;;;;;;;836.47;768.43;;;2.60;99.90;;;;;;5041864;28;20823;-83
2023/02/14 00:07:27;;;;;;;830.20;760.20;;;2.70;99.90;;;;;;5042087;28;20902;-83
2023/02/14 00:09:53;;;;;;;825.97;756.53;;;2.80;99.90;;;;;;5041795;28;20484;-85
2023/02/14 00:12:20;;;;;;;832.90;763.27;;;3.00;99.90;;;;;;5041700;28;20811;-83
2023/02/14 00:17:33;;;;;;;828.17;760.80;;;3.10;99.90;;;;;;5041749;28;20475;-83
2023/02/14 00:20:01;;;;;;;844.57;776.87;;;3.10;99.90;;;;;;5041773;28;20922;-84
2023/02/14 00:22:28;;;;;;;846.70;780.80;;;3.20;99.90;;;;;;5041696;28;20454;-85
2023/02/14 00:24:55;;;;;;;840.63;776.47;;;3.30;99.90;;;;;;5041270;28;20456;-83
2023/02/14 00:27:22;;;;;;;841.20;777.67;;;3.30;99.90;;;;;;5041899;28;20458;-83
2023/02/14 00:29:48;;;;;;;844.97;782.70;;;3.30;99.90;;;;;;5041731;28;20910;-83
2023/02/14 00:32:15;;;;;;;834.57;773.03;;;3.20;99.90;;;;;;5041434;28;20462;-83
2023/02/14 00:34:42;;;;;;;840.80;779.47;;;3.20;99.90;;;;;;5040891;28;20524;-82
2023/02/14 00:37:10;;;;;;;842.47;780.67;;;3.20;99.90;;;;;;5041692;28;20458;-83
2023/02/14 00:39:37;;;;;;;835.00;772.50;;;3.20;99.90;;;;;;5041451;28;20472;-83
2023/02/14 00:42:04;;;;;;;843.03;782.83;;;3.30;99.90;;;;;;5041493;28;20456;-83
2023/02/14 00:44:31;;;;;;;834.83;775.73;;;3.20;99.90;;;;;;5041530;28;20535;-83
2023/02/14 00:46:58;;;;;;;840.37;783.27;;;3.20;99.90;;;;;;5040851;28;20456;-83
2023/02/14 00:49:24;;;;;;;841.63;784.97;;;3.20;99.90;;;;;;5040860;28;20559;-83
2023/02/14 00:51:51;;;;;;;823.60;768.40;;;3.10;99.90;;;;;;5041725;28;20453;-84
2023/02/14 00:54:19;;;;;;;831.10;774.50;;;3.00;99.90;;;;;;5041076;28;20452;-82
2023/02/14 00:56:46;;;;;;;826.67;770.87;;;3.00;99.90;;;;;;5040573;28;20474;-83
2023/02/14 00:59:13;;;;;;;828.00;773.73;;;2.80;99.90;;;;;;5040946;28;20567;-83
2023/02/14 01:01:40;;;;;;;811.63;759.47;;;2.70;99.90;;;;;;5041798;28;20453;-83
2023/02/14 01:04:07;;;;;;;802.17;750.77;;;2.60;99.90;;;;;;5040949;28;20448;-83
2023/02/14 01:06:34;;;;;;;794.80;745.60;;;2.40;99.90;;;;;;5041182;28;20518;-83
2023/02/14 01:09:01;;;;;;;806.37;756.07;;;2.40;99.90;;;;;;5040587;28;20478;-83
2023/02/14 01:11:29;;;;;;;826.27;771.27;;;2.20;99.90;;;;;;5040955;28;20480;-83
2023/02/14 01:13:58;;;;;;;825.40;765.67;;;2.20;99.90;;;;;;5039533;28;20462;-83
2023/02/14 01:16:26;;;;;;;835.73;774.63;;;2.20;99.90;;;;;;5040675;28;20460;-83
2023/02/14 01:18:53;;;;;;;817.70;757.40;;;2.20;99.90;;;;;;5040030;28;20484;-83
2023/02/14 01:21:22;;;;;;;821.90;758.90;;;2.20;99.90;;;;;;5040133;28;21015;-83
2023/02/14 01:23:51;;;;;;;819.33;754.13;;;2.10;99.90;;;;;;5040857;28;20520;-83
2023/02/14 01:26:18;;;;;;;812.87;748.30;;;2.10;99.90;;;;;;5040036;28;20455;-82
2023/02/14 01:28:47;;;;;;;806.37;745.77;;;2.00;99.90;;;;;;5040661;28;20472;-83
2023/02/14 01:31:16;;;;;;;804.47;748.40;;;1.90;99.90;;;;;;5040640;28;20476;-83
2023/02/14 01:33:44;;;;;;;807.57;753.93;;;1.70;99.90;;;;;;5040317;28;20459;-82
2023/02/14 01:36:19;;;;;;;806.60;752.47;;;1.50;99.90;;;;;;5040524;28;20453;-82
2023/02/14 01:38:46;;;;;;;822.63;766.37;;;1.40;99.90;;;;;;5040190;28;20460;-82
2023/02/14 01:41:13;;;;;;;822.63;764.20;;;1.20;99.90;;;;;;5039954;28;20459;-84
2023/02/14 01:43:56;;;;;;;818.73;759.90;;;1.00;99.90;;;;;;5040134;28;20459;-82
2023/02/14 01:46:24;;;;;;;827.70;768.83;;;1.00;99.90;;;;;;5039547;28;20851;-82
2023/02/14 01:48:55;;;;;;;819.77;759.87;;;1.00;99.90;;;;;;5039347;28;20562;-82
2023/02/14 01:51:23;;;;;;;827.37;765.10;;;1.00;99.90;;;;;;5039933;28;20479;-82
2023/02/14 01:53:51;;;;;;;827.63;764.77;;;1.00;99.90;;;;;;5039660;28;20448;-82
2023/02/14 01:56:23;;;;;;;824.23;757.83;;;1.00;99.90;;;;;;5039591;28;20458;-82
2023/02/14 01:58:54;;;;;;;818.70;748.80;;;0.90;99.90;;;;;;5039002;28;20490;-82
2023/02/14 02:01:22;;;;;;;811.30;741.93;;;0.90;99.90;;;;;;5039148;28;20486;-82
2023/02/14 02:03:52;;;;;;;804.63;734.97;;;0.90;99.90;;;;;;5038998;28;20947;-82
2023/02/14 02:06:23;;;;;;;799.00;727.73;;;1.00;99.90;;;;;;5039283;28;20480;-82
2023/02/14 02:08:57;;;;;;;809.87;733.30;;;1.00;99.90;;;;;;5039057;28;20868;-82
2023/02/14 02:11:25;;;;;;;790.50;714.10;;;1.10;99.90;;;;;;5039021;28;20445;-82
2023/02/14 02:13:53;;;;;;;788.40;709.80;;;1.10;99.90;;;;;;5038775;28;20452;-82
2023/02/14 02:16:39;;;;;;;791.10;712.43;;;1.20;99.90;;;;;;5038713;28;20452;-82
2023/02/14 02:19:39;;;;;;;801.03;721.30;;;1.30;99.90;;;;;;5039522;28;20495;-82
2023/02/14 02:22:32;;;;;;;787.77;708.13;;;1.30;99.90;;;;;;5039026;28;20534;-82
2023/02/14 02:25:11;;;;;;;800.80;719.17;;;1.40;99.90;;;;;;5035156;28;20918;-82
2023/02/14 02:27:58;;;;;;;780.87;699.23;;;1.30;99.90;;;;;;5038317;28;20456;-82
2023/02/14 02:31:05;;;;;;;787.77;706.83;;;1.30;99.90;;;;;;5038697;28;20842;-82
2023/02/14 02:34:06;;;;;;;787.13;705.87;;;1.30;99.90;;;;;;5038999;28;20829;-82
2023/02/14 02:36:48;;;;;;;779.80;698.03;;;1.40;99.90;;;;;;5038198;28;20452;-82
2023/02/14 02:39:34;;;;;;;790.60;709.30;;;1.50;99.90;;;;;;5038815;28;20475;-82
2023/02/14 02:42:06;;;;;;;801.10;721.03;;;1.50;99.90;;;;;;5038632;28;20813;-81
2023/02/14 02:44:43;;;;;;;795.20;714.07;;;1.40;99.90;;;;;;5038150;28;20459;-82
2023/02/14 02:47:18;;;;;;;765.60;685.30;;;1.30;99.90;;;;;;5038612;28;20448;-82
2023/02/14 02:56:44;;;;;;;788.80;712.50;;;0.90;99.90;;;;;;5038484;28;21008;-82
2023/02/14 02:58:23;;;;;;;793.73;715.20;;;0.80;99.90;;;;;;5037965;28;20476;-81
2023/02/14 03:00:51;;;;;;;780.73;702.30;;;0.80;99.90;;;;;;5037927;28;20829;-81
2023/02/14 03:06:04;;;;;;;775.00;696.63;;;0.90;99.90;;;;;;5038074;28;20436;-82
2023/02/14 03:08:32;;;;;;;775.87;699.77;;;0.80;99.90;;;;;;5038211;28;20476;-82
2023/02/14 03:11:00;;;;;;;781.43;705.73;;;0.60;99.90;;;;;;5038229;28;20838;-81
2023/02/14 03:13:57;;;;;;;786.60;712.60;;;0.60;99.90;;;;;;5038195;28;20483;-83
2023/02/14 03:16:34;;;;;;;795.55;722.22;;;0.40;99.90;;;;;;5037613;28;20452;-82
2023/02/14 03:22:28;;;;;;;789.70;714.37;;;0.70;99.90;;;;;;5038138;28;20440;-81
2023/02/14 03:25:03;;;;;;;784.87;707.80;;;0.80;99.90;;;;;;5038117;28;20443;-81
2023/02/14 03:27:34;;;;;;;778.13;700.67;;;0.80;99.90;;;;;;5037902;28;20828;-81
2023/02/14 03:30:10;;;;;;;777.07;698.77;;;0.80;99.90;;;;;;5037617;28;20472;-81
2023/02/14 03:32:41;;;;;;;782.40;702.83;;;0.80;99.90;;;;;;5038260;28;20459;-82
2023/02/14 03:35:15;;;;;;;778.57;699.67;;;0.90;99.90;;;;;;5037513;28;20453;-82
2023/02/14 03:37:49;;;;;;;783.53;703.27;;;0.90;99.90;;;;;;5040759;28;20452;-82
2023/02/14 03:40:20;;;;;;;784.33;702.83;;;0.90;99.90;;;;;;5041820;28;20471;-82
2023/02/14 03:42:51;;;;;;;789.10;706.77;;;0.80;99.90;;;;;;5041780;28;20454;-81
2023/02/14 03:45:23;;;;;;;787.03;702.80;;;0.90;99.90;;;;;;5041933;28;20454;-82
2023/02/14 03:47:51;;;;;;;777.97;693.67;;;0.90;99.90;;;;;;5042018;28;20455;-82
2023/02/14 03:50:20;;;;;;;779.03;694.73;;;1.10;99.90;;;;;;5041261;28;20464;-82
2023/02/14 03:52:50;;;;;;;777.10;693.07;;;1.20;99.90;;;;;;5041149;28;20448;-82
2023/02/14 03:55:24;;;;;;;765.13;680.57;;;1.20;99.90;;;;;;5041130;28;20448;-82
2023/02/14 03:57:57;;;;;;;765.20;681.73;;;1.30;99.90;;;;;;5041760;28;20812;-81
2023/02/14 04:00:24;;;;;;;768.63;686.00;;;1.40;99.90;;;;;;5042141;28;20475;-82
2023/02/14 04:02:55;;;;;;;766.67;682.83;;;1.50;99.90;;;;;;5042253;28;20455;-81
2023/02/14 04:05:25;;;;;;;756.23;674.17;;;1.60;99.90;;;;;;5041837;28;20463;-82
2023/02/14 04:07:56;;;;;;;757.47;675.80;;;1.70;99.90;;;;;;5041548;28;20468;-82
2023/02/14 04:10:25;;;;;;;773.47;691.50;;;1.70;99.90;;;;;;5041254;28;20839;-82
2023/02/14 04:12:52;;;;;;;778.60;696.70;;;1.80;99.90;;;;;;5041493;28;20451;-81
2023/02/14 04:15:19;;;;;;;769.80;687.37;;;1.70;99.90;;;;;;5041211;28;20448;-82
2023/02/14 04:20:44;;;;;;;770.93;690.97;;;1.80;99.90;;;;;;4999342;28;20568;-81
2023/02/14 04:23:11;;;;;;;775.97;696.27;;;1.80;99.90;;;;;;4998566;28;20469;-81
2023/02/14 04:25:41;;;;;;;775.97;696.07;;;1.90;99.90;;;;;;5017037;28;20455;-81
2023/02/14 04:28:08;;;;;;;759.10;680.13;;;1.90;99.90;;;;;;5041191;28;20459;-81
2023/02/14 04:30:35;;;;;;;776.80;697.80;;;2.00;99.90;;;;;;5041068;28;20451;-82
2023/02/14 04:33:02;;;;;;;772.07;694.23;;;1.90;99.90;;;;;;5040773;28;20452;-81
2023/02/14 04:35:29;;;;;;;778.27;701.10;;;1.80;99.90;;;;;;5040518;28;20454;-81
2023/02/14 04:37:56;;;;;;;778.23;701.73;;;1.70;99.90;;;;;;5039946;28;20456;-81
2023/02/14 04:40:23;;;;;;;803.43;725.17;;;1.60;99.90;;;;;;5040572;28;20862;-80
2023/02/14 04:42:51;;;;;;;804.23;725.63;;;1.50;99.90;;;;;;5040701;28;20456;-81
2023/02/14 04:45:17;;;;;;;793.20;715.37;;;1.30;99.90;;;;;;5040939;28;20478;-80
2023/02/14 04:47:44;;;;;;;820.93;742.53;;;1.20;99.90;;;;;;5040190;28;20453;-82
2023/02/14 04:50:12;;;;;;;813.17;735.87;;;1.10;99.90;;;;;;5040899;28;20475;-81
2023/02/14 04:52:39;;;;;;;812.50;734.17;;;0.90;99.90;;;;;;5041005;28;20452;-82
2023/02/14 04:55:07;;;;;;;822.73;744.43;;;0.90;99.90;;;;;;5040008;28;21001;-82
2023/02/14 04:57:34;;;;;;;800.80;723.00;;;0.80;99.90;;;;;;5040142;28;20459;-81
2023/02/14 05:00:02;;;;;;;802.43;723.53;;;0.80;99.90;;;;;;5039813;28;20476;-83
2023/02/14 05:02:28;;;;;;;831.60;751.53;;;0.80;99.90;;;;;;5040663;28;20456;-82
2023/02/14 05:04:55;;;;;;;826.30;746.40;;;0.80;99.90;;;;;;5040441;28;20456;-81
2023/02/14 05:07:22;;;;;;;818.37;738.93;;;0.60;99.90;;;;;;5040419;28;20452;-81
2023/02/14 05:09:49;;;;;;;809.67;731.33;;;0.50;99.90;;;;;;5039655;28;20476;-82
2023/02/14 05:12:16;;;;;;;820.87;741.20;;;0.50;99.90;;;;;;5039643;28;20480;-81
2023/02/14 05:14:42;;;;;;;823.50;743.20;;;0.40;99.90;;;;;;5040348;28;20456;-82
2023/02/14 05:17:11;;;;;;;825.40;743.47;;;0.40;99.90;;;;;;5042485;28;20475;-81
2023/02/14 05:19:37;;;;;;;801.70;719.97;;;0.40;99.90;;;;;;5044734;28;20491;-82
2023/02/14 05:22:04;;;;;;;802.07;721.10;;;0.40;99.90;;;;;;5044674;28;20484;-81
2023/02/14 05:24:31;;;;;;;809.57;726.43;;;0.40;99.90;;;;;;5039999;28;20540;-82
2023/02/14 05:26:58;;;;;;;832.53;748.67;;;0.40;99.90;;;;;;5042241;28;20453;-82
2023/02/14 05:29:25;;;;;;;816.27;731.27;;;0.40;99.90;;;;;;5041084;28;21022;-81
2023/02/14 05:31:51;;;;;;;823.50;739.30;;;0.40;99.90;;;;;;5038890;28;20448;-81
2023/02/14 05:34:19;;;;;;;817.80;732.90;;;0.40;99.90;;;;;;5039116;28;20217;-82
2023/02/14 05:36:46;;;;;;;839.10;754.57;;;0.50;99.90;;;;;;5039447;28;20831;-80
2023/02/14 05:39:13;;;;;;;859.50;772.87;;;0.60;99.90;;;;;;5039282;28;20476;-81
2023/02/14 05:41:40;;;;;;;855.83;768.00;;;0.60;99.90;;;;;;5040520;28;20507;-81
2023/02/14 05:44:07;;;;;;;836.93;751.20;;;0.50;99.90;;;;;;5039431;28;20461;-81
2023/02/14 05:46:34;;;;;;;837.33;752.97;;;0.50;99.90;;;;;;5039887;28;20456;-82
2023/02/14 05:49:01;;;;;;;871.70;785.77;;;0.30;99.90;;;;;;5040004;28;20504;-82
2023/02/14 05:51:29;;;;;;;863.57;778.30;;;0.30;99.90;;;;;;5040881;28;20484;-82
2023/02/14 05:53:56;;;;;;;860.40;775.53;;;0.20;99.90;;;;;;5039144;28;20452;-81
2023/02/14 05:56:23;;;;;;;858.33;771.90;;;0.20;99.90;;;;;;5040687;28;20453;-81
2023/02/14 05:58:50;;;;;;;860.83;774.63;;;0.20;99.90;;;;;;5042983;28;20904;-81
2023/02/14 06:01:16;;;;;;;865.00;778.97;;;0.20;99.90;;;;;;5043287;28;20476;-81
2023/02/14 06:03:43;;;;;;;836.90;750.50;;;0.20;99.90;;;;;;5042953;28;20452;-82
2023/02/14 06:06:10;;;;;;;848.17;761.40;;;0.10;99.90;;;;;;5042661;28;20459;-81
2023/02/14 06:08:38;;;;;;;838.17;752.80;;;0.20;99.90;;;;;;5038835;28;20476;-82
2023/02/14 06:11:05;;;;;;;833.63;747.73;;;0.30;99.90;;;;;;5040098;28;20452;-81
2023/02/14 06:13:32;;;;;;;880.23;793.60;;;0.20;99.90;;;;;;5038748;28;20456;-82
2023/02/14 06:15:59;;;;;;;863.30;777.90;;;0.20;99.90;;;;;;5038392;28;20463;-82
2023/02/14 06:18:26;;;;;;;875.30;788.50;;;0.20;99.90;;;;;;5038399;28;20506;-81
2023/02/14 06:20:54;;;;;;;879.17;791.67;;;0.10;99.90;;;;;;5038643;28;20495;-82
2023/02/14 06:23:20;;;;;;;876.63;789.53;;;0.10;99.90;;;;;;5039078;28;20475;-81
2023/02/14 06:25:49;;;;;;;888.67;801.70;;;0.00;99.90;;;;;;5038269;28;20816;-82
2023/02/14 06:28:15;;;;;;;900.93;814.33;;;0.00;99.90;;;;;;5037896;28;21012;-82
2023/02/14 06:30:42;;;;;;;876.57;790.53;;;-0.10;99.90;;;;;;5037614;28;20452;-81
2023/02/14 06:33:09;;;;;;;871.50;785.30;;;-0.10;99.90;;;;;;5037707;28;20463;-81
2023/02/14 06:35:35;;;;;;;881.43;794.03;;;0.00;99.90;;;;;;5037667;28;20457;-81
2023/02/14 06:38:02;;;;;;;892.50;804.40;;;0.00;99.90;;;;;;5037932;28;20448;-82
2023/02/14 06:40:29;;;;;;;894.00;805.57;;;0.10;99.90;;;;;;5038351;28;20463;-81
2023/02/14 06:42:57;;;;;;;877.97;789.77;;;0.10;99.90;;;;;;5038298;28;20456;-81
2023/02/14 06:45:24;;;;;;;889.80;802.80;;;0.10;99.90;;;;;;5038295;28;20448;-81
2023/02/14 06:47:50;;;;;;;856.67;770.40;;;0.00;99.90;;;;;;5038290;28;20447;-81
2023/02/14 06:50:17;;;;;;;873.80;787.10;;;0.00;99.90;;;;;;5037758;28;20479;-81
2023/02/14 06:52:44;;;;;;;842.37;754.80;;;-0.10;99.90;;;;;;5037590;28;20471;-81
2023/02/14 06:55:12;;;;;;;826.87;741.90;;;0.00;99.90;;;;;;5038317;28;20824;-81
2023/02/14 06:57:40;;;;;;;819.65;733.33;;;-0.10;99.90;;;;;;5038558;28;20499;-81
2023/02/14 07:00:09;;;;;;;816.07;728.73;;;-0.10;99.90;;;;;;5037924;28;20608;-82
2023/02/14 07:02:36;;;;;;;812.27;725.10;;;0.00;99.90;;;;;;5038314;28;20488;-82
2023/02/14 07:05:03;;;;;;;835.20;746.80;;;0.10;99.90;;;;;;5037417;28;20835;-81
2023/02/14 07:07:30;;;;;;;835.75;746.38;;;0.20;99.90;;;;;;5037856;28;20456;-81
2023/02/14 07:09:57;;;;;;;834.93;745.60;;;0.30;99.90;;;;;;5037236;28;20224;-81
2023/02/14 07:12:23;;;;;;;843.97;754.37;;;0.40;99.90;;;;;;5039360;28;20448;-81
2023/02/14 07:14:50;;;;;;;844.00;753.20;;;0.40;99.90;;;;;;5040743;28;20456;-82
2023/02/14 07:17:18;;;;;;;844.40;753.60;;;0.60;99.90;;;;;;5041771;28;20455;-81
2023/02/14 07:19:45;;;;;;;849.00;758.30;;;0.70;99.90;;;;;;5041502;28;21009;-81
2023/02/14 07:22:12;;;;;;;838.00;746.70;;;0.70;99.90;;;;;;5041666;28;20487;-80
2023/02/14 07:24:38;;;;;;;831.40;740.63;;;0.90;99.90;;;;;;5042045;28;20293;-80
2023/02/14 07:27:05;;;;;;;805.87;718.40;;;1.00;99.90;;;;;;5041306;28;21083;-81
2023/02/14 07:29:32;;;;;;;803.33;716.67;;;1.10;99.90;;;;;;5041143;28;20472;-81
2023/02/14 07:31:58;;;;;;;799.15;712.58;;;1.20;99.90;;;;;;5041181;28;20455;-80
2023/02/14 07:34:27;;;;;;;802.40;715.30;;;1.20;99.90;;;;;;5040737;28;20204;-81
2023/02/14 07:36:53;;;;;;;800.10;712.33;;;1.30;99.90;;;;;;5040826;28;20464;-81
2023/02/14 07:39:20;;;;;;;794.37;706.77;;;1.30;99.90;;;;;;5039204;28;21008;-83
2023/02/14 07:41:47;;;;;;;809.43;704.27;;;1.60;99.90;;;;;;5040659;28;20850;-81
2023/02/14 07:44:14;;;;;;;784.80;681.50;;;1.60;99.90;;;;;;5040404;28;20462;-81
2023/02/14 07:46:40;;;;;;;805.13;714.17;;;1.60;99.90;;;;;;5039805;28;20463;-81
2023/02/14 07:49:08;;;;;;;812.00;713.90;;;1.70;99.90;;;;;;5039643;28;20480;-81
2023/02/14 07:51:36;;;;;;;801.97;694.27;;;1.80;99.90;;;;;;5039745;28;20449;-82
2023/02/14 07:54:06;;;;;;;820.47;713.10;;;2.00;99.90;;;;;;5040557;28;20456;-79
2023/02/14 07:56:33;;;;;;;798.50;694.00;;;2.00;99.90;;;;;;5039979;28;21062;-80
2023/02/14 07:58:59;;;;;;;817.40;695.73;;;2.20;99.90;;;;;;5039680;28;20472;-81
2023/02/14 08:01:26;;;;;;;785.67;683.87;;;2.30;99.90;;;;;;5039628;28;20866;-81
2023/02/14 08:03:53;;;;;;;784.13;665.27;;;2.20;99.90;;;;;;5040063;28;20459;-81
2023/02/14 08:06:20;;;;;;;797.17;690.13;;;2.30;99.90;;;;;;5039703;28;20456;-81
2023/02/14 08:08:48;;;;;;;809.60;672.20;;;2.50;99.90;;;;;;5039513;28;20476;-80
2023/02/14 08:12:57;;;;;;;788.63;675.37;;;2.50;99.90;;;;;;5039158;28;20965;-80
2023/02/14 08:14:03;;;;;;;795.33;680.20;;;2.60;99.90;;;;;;5038570;28;20490;-81
2023/02/14 08:16:31;;;;;;;791.77;668.30;;;2.70;99.90;;;;;;5039801;28;20930;-81
2023/02/14 08:18:58;;;;;;;791.27;680.10;;;2.90;99.90;;;;;;5039522;28;21173;-81
2023/02/14 08:21:24;;;;;;;791.60;675.37;;;3.00;99.90;;;;;;5039157;28;20871;-81
2023/02/14 08:23:52;;;;;;;795.30;683.00;;;3.00;99.90;;;;;;5039111;28;20458;-81
2023/02/14 08:26:19;;;;;;;802.40;680.73;;;3.20;99.90;;;;;;5038987;28;20457;-81
2023/02/14 08:28:46;;;;;;;782.70;683.50;;;3.40;99.90;;;;;;5038933;28;20483;-81
2023/02/14 08:31:23;;;;;;;779.30;683.20;;;3.50;99.90;;;;;;5038671;28;20479;-81
2023/02/14 08:33:50;;;;;;;771.00;675.23;;;3.60;99.90;;;;;;5039718;28;20462;-81
2023/02/14 08:36:16;;;;;;;771.13;672.63;;;3.70;99.90;;;;;;5038786;28;20479;-81
2023/02/14 08:38:44;;;;;;;778.70;680.80;;;3.80;99.90;;;;;;5039107;28;20484;-81
2023/02/14 08:41:12;;;;;;;782.90;691.20;;;3.90;99.90;;;;;;5038589;28;20448;-80
2023/02/14 08:43:39;;;;;;;779.97;696.73;;;3.90;99.90;;;;;;5039401;28;20453;-81
2023/02/14 08:46:05;;;;;;;784.77;701.13;;;4.10;99.90;;;;;;5038945;28;20448;-81
2023/02/14 08:48:33;;;;;;;789.10;707.30;;;4.20;99.90;;;;;;5038726;28;20476;-80
2023/02/14 08:51:05;;;;;;;791.57;710.60;;;4.30;99.90;;;;;;5039031;28;20456;-81
2023/02/14 08:53:31;;;;;;;794.87;713.40;;;4.40;99.90;;;;;;5039076;28;20450;-82
2023/02/14 08:56:02;;;;;;;785.47;707.53;;;4.40;99.90;;;;;;5038569;28;20452;-80
2023/02/14 08:58:34;;;;;;;792.93;715.20;;;4.60;99.90;;;;;;5039251;28;20464;-81
2023/02/14 09:01:01;;;;;;;768.33;694.90;;;4.70;99.90;;;;;;5038616;28;20456;-81
2023/02/14 09:03:28;;;;;;;771.07;702.53;;;4.70;99.90;;;;;;5038310;28;20480;-83
2023/02/14 09:05:55;;;;;;;744.83;678.20;;;4.80;99.90;;;;;;5038074;28;20459;-81
2023/02/14 09:08:21;;;;;;;748.03;685.13;;;4.90;99.90;;;;;;5039334;28;20480;-82
2023/02/14 09:10:48;;;;;;;731.83;672.60;;;5.00;99.90;;;;;;5038296;28;20459;-81
2023/02/14 09:13:15;;;;;;;709.10;653.43;;;5.10;99.90;;;;;;5038899;28;20449;-82
2023/02/14 09:15:43;;;;;;;686.80;634.90;;;5.20;99.90;;;;;;5038003;28;20457;-81
2023/02/14 09:18:10;;;;;;;678.93;630.20;;;5.40;99.90;;;;;;5038393;28;20475;-81
2023/02/14 09:20:37;;;;;;;661.70;615.87;;;5.40;99.90;;;;;;5037783;28;20459;-83
2023/02/14 09:23:04;;;;;;;610.97;571.43;;;5.50;99.90;;;;;;5038042;28;20480;-81
2023/02/14 09:25:30;;;;;;;564.30;531.00;;;5.60;99.90;;;;;;5037503;28;20547;-80
2023/02/14 09:27:57;;;;;;;492.73;465.73;;;5.70;99.90;;;;;;5037849;28;20462;-81
2023/02/14 09:30:24;;;;;;;487.23;459.73;;;5.70;99.90;;;;;;5037776;28;20456;-82
2023/02/14 09:32:53;;;;;;;487.53;461.90;;;5.90;99.90;;;;;;5037700;28;20460;-82
2023/02/14 09:35:20;;;;;;;373.90;356.10;;;6.00;99.90;;;;;;5018974;28;20832;-81
2023/02/14 09:40:33;;;;;;;266.30;253.03;;;6.10;99.90;;;;;;5038311;28;20439;-80
2023/02/14 09:43:15;;;;;;;214.47;203.33;;;6.20;99.90;;;;;;5038029;28;20473;-80
2023/02/14 09:45:42;;;;;;;156.27;146.97;;;6.40;99.90;;;;;;5037185;28;20796;-81
2023/02/14 09:48:21;;;;;;;178.03;168.67;;;6.40;99.90;;;;;;5037051;28;20457;-81
2023/02/14 09:50:52;;;;;;;125.07;118.03;;;6.50;99.90;;;;;;5038088;28;20452;-83
2023/02/14 09:53:25;;;;;;;89.20;81.97;;;6.60;99.90;;;;;;5038589;28;20443;-81
2023/02/14 09:55:58;;;;;;;40.43;35.57;;;6.80;99.90;;;;;;5037884;28;20460;-82
2023/02/14 09:58:31;;;;;;;43.57;23.07;;;6.90;99.90;;;;;;5038331;28;20472;-83
2023/02/14 10:01:05;;;;;;;33.47;21.10;;;7.40;99.90;;;;;;5038726;28;20836;-82
2023/02/14 10:04:01;;;;;;;37.80;26.17;;;7.70;99.90;;;;;;5038915;28;20477;-82
2023/02/14 10:06:46;;;;;;;41.00;24.80;;;8.20;99.90;;;;;;5038124;28;20463;-82
2023/02/14 10:09:23;;;;;;;34.30;20.60;;;8.70;99.90;;;;;;5038782;28;20487;-83
2023/02/14 10:11:50;;;;;;;33.13;20.50;;;9.10;99.90;;;;;;5038197;28;20459;-83
2023/02/14 10:14:19;;;;;;;33.63;19.93;;;9.50;99.90;;;;;;5037880;28;20463;-83
2023/02/14 10:16:50;;;;;;;32.07;18.73;;;9.70;99.90;;;;;;5038292;28;20551;-82
2023/02/14 10:19:22;;;;;;;32.13;18.10;;;10.10;99.90;;;;;;5038474;28;20479;-82
2023/02/14 10:21:53;;;;;;;30.73;18.80;;;10.50;99.90;;;;;;5038740;28;20460;-83
2023/02/14 10:24:27;;;;;;;27.13;17.23;;;10.80;99.90;;;;;;5038020;28;20460;-83
2023/02/14 10:27:01;;;;;;;25.90;16.03;;;11.10;99.90;;;;;;5038026;28;20480;-83
2023/02/14 10:29:28;;;;;;;26.97;16.20;;;11.30;99.90;;;;;;5038255;28;20479;-83
2023/02/14 10:31:59;;;;;;;29.17;16.63;;;11.50;99.90;;;;;;5039385;28;20458;-83
2023/02/14 10:34:35;;;;;;;30.03;17.30;;;12.00;99.90;;;;;;5037907;28;20457;-83
2023/02/14 10:37:20;;;;;;;24.37;15.73;;;12.10;99.50;;;;;;5039030;28;20434;-82
2023/02/14 10:40:01;;;;;;;26.47;15.77;;;12.50;98.70;;;;;;5039286;28;21056;-82
2023/02/14 10:42:36;;;;;;;33.17;18.53;;;12.80;98.10;;;;;;5038169;28;20463;-84
2023/02/14 10:45:17;;;;;;;29.53;18.50;;;12.70;96.30;;;;;;5038151;28;20970;-83
2023/02/14 10:47:50;;;;;;;28.13;16.60;;;12.80;95.00;;;;;;5038567;28;20977;-83
2023/02/14 10:50:24;;;;;;;32.40;17.80;;;13.20;95.60;;;;;;5038662;28;20487;-83
2023/02/14 10:52:59;;;;;;;30.33;17.50;;;13.40;95.10;;;;;;5039053;28;20440;-83
2023/02/14 10:55:34;;;;;;;27.00;16.07;;;13.60;93.10;;;;;;5038764;28;20532;-83
2023/02/14 10:58:04;;;;;;;30.33;17.40;;;13.70;92.50;;;;;;5038211;28;20465;-85
2023/02/14 11:00:34;;;;;;;29.47;16.83;;;13.80;91.10;;;;;;5038942;28;20453;-83
2023/02/14 11:03:04;;;;;;;26.93;15.40;;;14.00;90.20;;;;;;5038480;28;20472;-82
2023/02/14 11:05:36;;;;;;;27.77;16.00;;;14.50;90.60;;;;;;5039254;28;20517;-84
2023/02/14 11:08:13;;;;;;;26.23;15.67;;;14.50;88.50;;;;;;5038709;28;20454;-83
2023/02/14 11:10:40;;;;;;;26.13;16.40;;;14.80;87.70;;;;;;5037871;28;20459;-82
2023/02/14 11:13:28;;;;;;;24.30;15.20;;;15.00;86.90;;;;;;5038453;28;20481;-83
2023/02/14 11:15:59;;;;;;;26.07;14.90;;;15.00;84.20;;;;;;5038620;28;20448;-82
2023/02/14 11:18:31;;;;;;;24.10;15.80;;;15.10;83.40;;;;;;5038304;28;21022;-82
2023/02/14 11:21:05;;;;;;;24.93;16.10;;;15.60;81.90;;;;;;5038079;28;20461;-81
2023/02/14 11:23:34;;;;;;;23.47;16.23;;;15.60;79.00;;;;;;5038214;28;20451;-82
2023/02/14 11:26:03;;;;;;;23.03;15.20;;;15.50;79.80;;;;;;5037578;28;20472;-82
2023/02/14 11:28:30;;;;;;;24.87;16.53;;;15.50;77.70;;;;;;5038338;28;20482;-82
2023/02/14 11:30:57;;;;;;;30.93;17.03;;;15.60;78.80;;;;;;5038680;28;20456;-82
2023/02/14 11:33:33;;;;;;;22.57;15.60;;;15.80;75.90;;;;;;5038077;28;20997;-81
2023/02/14 11:36:04;;;;;;;27.90;17.40;;;16.20;74.50;;;;;;5038066;28;20943;-81
2023/02/14 11:38:34;;;;;;;25.37;14.73;;;16.10;74.20;;;;;;5037501;28;20479;-81
2023/02/14 11:41:01;;;;;;;26.37;15.50;;;16.40;72.10;;;;;;5038376;28;20951;-83
2023/02/14 11:43:33;;;;;;;23.20;14.67;;;16.20;72.20;;;;;;5037747;28;20452;-82
2023/02/14 11:46:15;;;;;;;21.97;14.40;;;16.60;69.60;;;;;;5037401;28;20463;-83
2023/02/14 11:48:56;;;;;;;26.67;15.93;;;17.10;67.50;;;;;;5039567;28;20480;-83
2023/02/14 11:51:30;;;;;;;25.60;15.67;;;17.20;67.10;;;;;;5038245;28;20462;-83
2023/02/14 11:54:03;;;;;;;24.10;15.03;;;17.40;65.40;;;;;;5036491;28;20469;-82
2023/02/14 11:56:46;;;;;;;24.40;15.20;;;17.90;62.60;;;;;;5037331;28;20985;-84
2023/02/14 11:59:29;;;;;;;26.13;15.07;;;18.10;60.10;;;;;;5040783;28;20471;-82
2023/02/14 12:01:58;;;;;;;29.47;15.20;;;17.90;60.80;;;;;;5041624;28;20454;-83
2023/02/14 12:04:34;;;;;;;26.07;15.77;;;18.20;60.20;;;;;;5040515;28;20457;-83
2023/02/14 12:07:21;;;;;;;23.87;14.33;;;18.10;57.40;;;;;;5041500;28;20459;-83
2023/02/14 12:10:04;;;;;;;20.93;14.50;;;18.00;56.20;;;;;;5041736;28;20846;-83
2023/02/14 12:12:31;;;;;;;25.77;15.87;;;17.90;57.60;;;;;;5041132;28;20838;-83
2023/02/14 12:15:22;;;;;;;26.73;15.57;;;18.20;54.20;;;;;;5041427;28;20458;-83
2023/02/14 12:17:50;;;;;;;22.37;14.20;;;17.70;54.50;;;;;;5040998;28;20454;-83
2023/02/14 12:20:23;;;;;;;24.47;14.87;;;18.50;54.80;;;;;;5041005;28;20468;-84
2023/02/14 12:23:01;;;;;;;23.20;14.67;;;18.60;51.90;;;;;;5041117;28;20941;-83
2023/02/14 12:25:36;;;;;;;24.90;13.77;;;19.10;50.60;;;;;;5040411;28;20458;-83
2023/02/14 12:28:09;;;;;;;25.70;15.00;;;18.90;49.70;;;;;;5040703;28;20528;-83
2023/02/14 12:30:36;;;;;;;22.57;14.37;;;19.00;48.30;;;;;;5041556;28;20818;-81
2023/02/14 12:33:04;;;;;;;23.90;15.10;;;19.40;48.00;;;;;;5041178;28;20489;-83
2023/02/14 12:35:44;;;;;;;23.10;14.40;;;19.20;44.90;;;;;;5041373;28;20489;-82
2023/02/14 12:38:20;;;;;;;21.57;13.43;;;19.00;44.40;;;;;;5040123;28;20462;-83
2023/02/14 12:40:59;;;;;;;26.40;15.20;;;19.20;49.60;;;;;;5040947;28;20464;-82
2023/02/14 12:43:44;;;;;;;22.27;13.67;;;18.70;44.30;;;;;;5039984;28;20454;-83
2023/02/14 12:46:34;;;;;;;26.30;14.40;;;19.30;43.90;;;;;;5040880;28;20445;-83
2023/02/14 12:49:16;;;;;;;20.97;14.43;;;19.40;38.60;;;;;;5040181;28;20475;-82
2023/02/14 12:51:49;;;;;;;26.90;14.93;;;19.70;42.30;;;;;;5040751;28;20826;-83
2023/02/14 12:54:38;;;;;;;22.83;14.00;;;19.70;38.30;;;;;;5040409;28;20885;-80
2023/02/14 12:57:13;;;;;;;21.10;14.53;;;19.80;38.70;;;;;;5040461;28;20541;-83